Olinda, Brazil
Current Conditions -  °F | °C
As of 12:00 PM on Monday 24 Nov 2014 (Local Time) from SBRF Reporting Station
Few Clouds Few Clouds  
Wind Chill: 84°   Ceiling: Unl
Heat Index: 91°   Visibility: 6mi
Dew Point: 73°   Wind: 10mph
Humidity: 70%   Direction: 80°E
Pressure: 29.97"   Gusts: NA
Location:  8.01°S, 34.86°W
Report Text: SBRF 241500Z 08009KT 9999 FEW023 29/23 Q1015
Loading
Personal Weather Stations






























Interactive Weather Map New forecast layout! Learn more

10-Day Weather Forecast

Advertisements
Track Severe Weather on mobile